Time;durP1;ratioP1;P1;durP2;ratioP2;P2;SDS_P1;SDS_P2;PMS_P1;PMS_P2;Temp;Humidity;BMP_temperature;BMP_pressure;BME280_temperature;BME280_humidity;BME280_pressure;Samples;Min_cycle;Max_cycle;Signal;HPM_P1;HPM_P2
2022/04/04 00:00:42;;;;;;;6.07;5.47;;;;;;;-1.92;100.00;100819.31;5059356;28;20290;-55
2022/04/04 00:03:07;;;;;;;5.63;5.13;;;;;;;-1.92;100.00;100821.84;5056610;28;20652;-56
2022/04/04 00:05:34;;;;;;;6.40;5.70;;;;;;;-1.93;100.00;100820.09;5059139;28;20193;-56
2022/04/04 00:07:59;;;;;;;6.30;5.70;;;;;;;-1.95;100.00;100806.47;5061208;28;20718;-55
2022/04/04 00:10:24;;;;;;;5.77;5.27;;;;;;;-1.95;100.00;100808.13;5067800;28;20257;-56
2022/04/04 00:12:50;;;;;;;6.07;5.57;;;;;;;-1.96;100.00;100816.50;5064473;28;20216;-57
2022/04/04 00:15:15;;;;;;;5.60;5.20;;;;;;;-1.97;100.00;100818.19;5062141;28;20376;-53
2022/04/04 00:17:40;;;;;;;6.47;5.87;;;;;;;-1.96;100.00;100821.59;5068643;28;20182;-56
2022/04/04 00:20:08;;;;;;;6.73;6.13;;;;;;;-1.97;100.00;100817.34;5066541;28;20216;-57
2022/04/04 00:22:34;;;;;;;6.50;5.90;;;;;;;-1.98;100.00;100813.91;5068604;28;20181;-56
2022/04/04 00:24:59;;;;;;;6.40;5.50;;;;;;;-2.00;100.00;100813.84;5060286;28;20182;-55
2022/04/04 00:27:25;;;;;;;6.30;5.70;;;;;;;-2.01;100.00;100809.56;5064734;28;20182;-56
2022/04/04 00:29:50;;;;;;;6.30;5.70;;;;;;;-2.02;100.00;100815.44;5062885;28;20562;-55
2022/04/04 00:32:16;;;;;;;6.57;5.97;;;;;;;-2.03;100.00;100813.69;5067541;28;20210;-57
2022/04/04 00:34:41;;;;;;;5.83;5.27;;;;;;;-2.05;100.00;100811.88;5064402;28;20206;-58
2022/04/04 00:37:06;;;;;;;5.83;5.33;;;;;;;-2.06;100.00;100807.59;5064995;28;20199;-56
2022/04/04 00:39:32;;;;;;;6.27;5.67;;;;;;;-2.06;100.00;100810.13;5060158;28;20262;-55
2022/04/04 00:41:57;;;;;;;5.90;5.40;;;;;;;-2.07;100.00;100805.84;5068876;28;20265;-56
2022/04/04 00:44:22;;;;;;;5.77;5.27;;;;;;;-2.07;100.00;100811.78;5063876;28;20172;-55
2022/04/04 00:46:48;;;;;;;6.40;5.80;;;;;;;-2.08;100.00;100807.50;5066893;28;20658;-56
2022/04/04 00:49:13;;;;;;;6.67;6.07;;;;;;;-2.09;100.00;100808.28;5069383;28;20199;-56
2022/04/04 00:51:39;;;;;;;5.83;5.33;;;;;;;-2.08;100.00;100801.56;5061301;28;20670;-55
2022/04/04 00:54:05;;;;;;;5.97;5.47;;;;;;;-2.09;100.00;100804.91;5065314;28;20646;-56
2022/04/04 00:56:35;;;;;;;5.70;5.20;;;;;;;-2.09;100.00;100803.22;5063469;28;20185;-55
2022/04/04 00:59:02;;;;;;;5.77;5.20;;;;;;;-2.08;100.00;100799.03;5067234;28;20240;-56
2022/04/04 01:01:27;;;;;;;6.33;5.73;;;;;;;-2.11;100.00;100794.66;5057394;28;20651;-55
2022/04/04 01:03:53;;;;;;;6.67;6.07;;;;;;;-2.11;100.00;100799.72;5062064;28;20232;-56
2022/04/04 01:06:18;;;;;;;6.43;5.83;;;;;;;-2.11;100.00;100791.25;5069374;28;20248;-57
2022/04/04 01:08:44;;;;;;;5.47;5.07;;;;;;;-2.12;100.00;100797.13;5065299;28;20690;-56
2022/04/04 01:11:10;;;;;;;6.13;5.50;;;;;;;-2.11;100.00;100788.72;5063581;28;20235;-55
2022/04/04 01:13:35;;;;;;;5.77;5.27;;;;;;;-2.11;100.00;100788.72;5055758;28;20206;-56
2022/04/04 01:16:01;;;;;;;6.03;5.47;;;;;;;-2.10;100.00;100780.31;5054761;28;20179;-55
2022/04/04 01:18:27;;;;;;;6.03;5.43;;;;;;;-2.09;100.00;100782.06;5063380;28;20206;-56
2022/04/04 01:20:52;;;;;;;6.40;5.80;;;;;;;-2.09;100.00;100771.94;5062052;28;20617;-56
2022/04/04 01:23:38;;;;;;;6.07;5.47;;;;;;;-2.11;100.00;100774.38;5076758;28;20223;-56
2022/04/04 01:26:03;;;;;;;6.17;5.63;;;;;;;-2.10;100.00;100765.13;5054199;28;20214;-58
2022/04/04 01:28:29;;;;;;;5.97;5.47;;;;;;;-2.10;100.00;100763.44;5064290;28;20693;-54
2022/04/04 01:30:55;;;;;;;5.77;5.27;;;;;;;-2.10;100.00;100754.97;5059748;28;20189;-58
2022/04/04 01:33:21;;;;;;;6.37;5.77;;;;;;;-2.12;100.00;100752.38;5060921;28;20214;-58
2022/04/04 01:35:47;;;;;;;5.70;5.20;;;;;;;-2.11;100.00;100758.28;5058846;28;20198;-54
2022/04/04 01:38:12;;;;;;;6.07;5.57;;;;;;;-2.14;100.00;100748.88;5063346;28;20635;-54
2022/04/04 01:40:38;;;;;;;6.37;5.50;;;;;;;-2.16;100.00;100755.53;5065209;28;20224;-57
2022/04/04 01:43:04;;;;;;;5.83;5.20;;;;;;;-2.17;100.00;100746.19;5059985;28;20178;-55
2022/04/04 01:48:14;;;;;;;6.10;5.60;;;;;;;-2.21;100.00;100749.34;5062130;28;20321;-57
2022/04/04 01:50:39;;;;;;;6.30;5.80;;;;;;;-2.22;100.00;100748.50;5063949;28;20650;-56
2022/04/04 01:55:49;;;;;;;5.77;5.17;;;;;;;-2.25;100.00;100745.81;5066199;28;20189;-55
2022/04/04 01:58:15;;;;;;;6.67;5.83;;;;;;;-2.25;100.00;100747.44;5055894;28;20567;-55
2022/04/04 02:00:41;;;;;;;7.10;5.80;;;;;;;-2.29;100.00;100741.34;5060962;28;20238;-57
2022/04/04 02:03:06;;;;;;;5.80;5.30;;;;;;;-2.30;100.00;100742.16;5066220;28;20235;-58
2022/04/04 02:05:31;;;;;;;6.00;5.50;;;;;;;-2.32;100.00;100752.22;5057063;28;20266;-56
2022/04/04 02:07:57;;;;;;;6.30;5.80;;;;;;;-2.33;100.00;100742.88;5064706;28;20228;-56
2022/04/04 02:10:22;;;;;;;6.00;5.47;;;;;;;-2.34;100.00;100738.59;5073359;28;20182;-56
2022/04/04 02:12:48;;;;;;;6.23;5.47;;;;;;;-2.34;100.00;100740.25;5063386;28;20557;-56
2022/04/04 02:15:13;;;;;;;6.23;5.63;;;;;;;-2.34;100.00;100741.13;5061775;28;20186;-56
2022/04/04 02:17:39;;;;;;;6.23;5.63;;;;;;;-2.35;100.00;100734.31;5059783;28;20186;-56
2022/04/04 02:20:07;;;;;;;6.53;5.93;;;;;;;-2.35;100.00;100730.94;5055939;28;20847;-57
2022/04/04 02:22:33;;;;;;;6.33;5.73;;;;;;;-2.34;100.00;100732.63;5061531;28;20232;-54
2022/04/04 02:24:58;;;;;;;5.73;5.23;;;;;;;-2.35;100.00;100723.31;5060875;28;20352;-56
2022/04/04 02:27:24;;;;;;;5.57;5.07;;;;;;;-2.36;100.00;100713.97;5056342;28;20183;-54
2022/04/04 02:29:49;;;;;;;6.70;6.03;;;;;;;-2.37;100.00;100715.63;5061953;28;20198;-56
2022/04/04 02:32:15;;;;;;;5.50;5.03;;;;;;;-2.37;100.00;100717.31;5060110;28;20202;-58
2022/04/04 02:34:40;;;;;;;5.27;4.77;;;;;;;-2.37;100.00;100717.31;5056984;28;20707;-56
2022/04/04 02:37:05;;;;;;;5.53;5.03;;;;;;;-2.37;100.00;100724.91;5057270;28;20252;-57
2022/04/04 02:39:31;;;;;;;5.73;4.83;;;;;;;-2.38;100.00;100725.69;5056416;28;20202;-56
2022/04/04 02:41:56;;;;;;;5.60;5.00;;;;;;;-2.39;100.00;100718.88;5061862;28;20297;-57
2022/04/04 02:44:22;;;;;;;6.13;5.53;;;;;;;-2.40;100.00;100707.84;5056258;28;22194;-58
2022/04/04 02:46:48;;;;;;;5.80;5.20;;;;;;;-2.40;100.00;100714.59;5060393;28;20214;-58
2022/04/04 02:49:14;;;;;;;5.80;5.27;;;;;;;-2.40;100.00;100707.00;5059005;28;20566;-56
2022/04/04 02:51:39;;;;;;;6.23;5.63;;;;;;;-2.41;100.00;100705.25;5055986;28;20188;-57
2022/04/04 02:54:05;;;;;;;5.97;5.47;;;;;;;-2.41;100.00;100720.47;5075117;28;20210;-56
2022/04/04 02:56:30;;;;;;;6.50;5.90;;;;;;;-2.44;100.00;100718.66;5058056;28;20191;-56
2022/04/04 02:59:00;;;;;;;6.27;5.77;;;;;;;-2.45;100.00;100714.38;5058715;28;20216;-58
2022/04/04 03:01:26;;;;;;;6.20;5.60;;;;;;;-2.46;100.00;100705.88;5060083;28;20183;-57
2022/04/04 03:03:51;;;;;;;6.70;5.40;;;;;;;-2.46;100.00;100722.78;5055289;28;20186;-55
2022/04/04 03:06:17;;;;;;;5.90;5.37;;;;;;;-2.47;100.00;100709.22;5063206;28;20186;-58
2022/04/04 03:08:42;;;;;;;5.93;5.43;;;;;;;-2.48;100.00;100709.16;5058390;28;20241;-54
2022/04/04 03:11:08;;;;;;;5.40;4.90;;;;;;;-2.51;100.00;100709.88;5058740;28;20273;-57
2022/04/04 03:13:33;;;;;;;6.33;5.73;;;;;;;-2.52;100.00;100709.78;5055976;28;20292;-55
2022/04/04 03:15:58;;;;;;;5.67;5.17;;;;;;;-2.54;100.00;100711.34;5064008;28;20182;-58
2022/04/04 03:18:25;;;;;;;6.30;5.70;;;;;;;-2.58;100.00;100714.56;5052018;28;20558;-57
2022/04/04 03:20:52;;;;;;;5.93;5.33;;;;;;;-2.63;100.00;100710.09;5054748;28;20228;-55
2022/04/04 03:23:17;;;;;;;6.27;5.67;;;;;;;-2.64;100.00;100712.53;5058793;28;20232;-57
2022/04/04 03:25:43;;;;;;;7.20;5.83;;;;;;;-2.68;100.00;100716.59;5066910;28;20831;-55
2022/04/04 03:28:08;;;;;;;6.50;5.90;;;;;;;-2.70;100.00;100704.66;5071260;28;20740;-56
2022/04/04 03:30:34;;;;;;;5.63;5.13;;;;;;;-2.72;100.00;100708.75;5056129;28;20220;-55
2022/04/04 03:32:59;;;;;;;5.90;5.40;;;;;;;-2.73;100.00;100705.38;5054724;28;20267;-56
2022/04/04 03:35:27;;;;;;;5.90;5.40;;;;;;;-2.76;100.00;100706.06;5059311;28;20183;-56
2022/04/04 03:37:54;;;;;;;6.47;5.80;;;;;;;-2.79;100.00;100705.91;5060200;28;20193;-56
2022/04/04 03:40:20;;;;;;;5.37;4.73;;;;;;;-2.80;100.00;100710.91;5059849;28;20186;-57
2022/04/04 03:42:47;;;;;;;6.10;5.50;;;;;;;-2.80;100.00;100710.91;5057793;28;20556;-55
2022/04/04 03:45:14;;;;;;;6.33;5.73;;;;;;;-2.80;100.00;100719.34;5064059;28;20201;-57
2022/04/04 03:47:41;;;;;;;6.90;6.10;;;;;;;-2.80;100.00;100721.03;5049057;28;20186;-55
2022/04/04 03:50:07;;;;;;;6.87;5.47;;;;;;;-2.81;100.00;100720.19;5065124;28;20209;-55
2022/04/04 03:52:34;;;;;;;6.27;5.67;;;;;;;-2.82;100.00;100717.53;5060604;28;20205;-57
2022/04/04 03:54:59;;;;;;;6.47;5.87;;;;;;;-2.84;100.00;100714.94;5064768;28;20190;-56
2022/04/04 03:57:25;;;;;;;6.10;5.50;;;;;;;-2.85;100.00;100712.31;5065882;28;20549;-57
2022/04/04 03:59:51;;;;;;;6.63;6.00;;;;;;;-2.88;100.00;100710.50;5058368;28;20213;-57
2022/04/04 04:02:16;;;;;;;6.80;5.93;;;;;;;-2.89;100.00;100706.22;5063582;28;20630;-57
2022/04/04 04:04:43;;;;;;;6.93;6.23;;;;;;;-2.91;100.00;100707.78;5064080;28;20217;-56
2022/04/04 04:07:15;;;;;;;6.23;5.73;;;;;;;-2.93;100.00;100714.44;5064612;28;20194;-57
2022/04/04 04:09:44;;;;;;;6.00;5.40;;;;;;;-2.94;100.00;100705.09;5067925;28;20216;-57
2022/04/04 04:12:12;;;;;;;6.43;5.83;;;;;;;-2.96;100.00;100704.19;5062514;28;20218;-56
2022/04/04 04:14:41;;;;;;;6.23;5.20;;;;;;;-2.99;100.00;100704.88;5059955;28;20211;-56
2022/04/04 04:17:08;;;;;;;6.57;5.93;;;;;;;-3.01;100.00;100691.25;5056391;28;20303;-58
2022/04/04 04:22:19;;;;;;;6.97;6.27;;;;;;;-3.04;100.00;100695.28;5058817;28;20197;-57
2022/04/04 04:24:45;;;;;;;6.80;6.20;;;;;;;-3.05;100.00;100689.38;5062113;28;20192;-55
2022/04/04 04:27:10;;;;;;;7.83;7.00;;;;;;;-3.06;100.00;100685.94;5061895;28;20549;-57
2022/04/04 04:29:36;;;;;;;7.57;6.90;;;;;;;-3.08;100.00;100685.00;5066922;28;20697;-58
2022/04/04 04:32:01;;;;;;;7.97;7.27;;;;;;;-3.10;100.00;100683.19;5069154;28;20681;-58
2022/04/04 04:34:27;;;;;;;7.50;6.80;;;;;;;-3.12;100.00;100693.25;5065741;28;20293;-57
2022/04/04 04:36:52;;;;;;;7.20;6.60;;;;;;;-3.14;100.00;100688.84;5064120;28;20255;-57
2022/04/04 04:39:17;;;;;;;7.33;6.63;;;;;;;-3.15;100.00;100687.13;5063519;28;20209;-56
2022/04/04 04:41:45;;;;;;;7.53;6.83;;;;;;;-3.17;100.00;100686.16;5065832;28;20187;-58
2022/04/04 04:44:11;;;;;;;7.10;6.40;;;;;;;-3.18;100.00;100692.03;5065971;28;20527;-54
2022/04/04 04:46:37;;;;;;;7.33;6.60;;;;;;;-3.19;100.00;100690.31;5062033;28;20190;-55
2022/04/04 04:49:02;;;;;;;7.57;6.87;;;;;;;-3.20;100.00;100684.34;5054660;28;20241;-56
2022/04/04 04:51:27;;;;;;;8.40;7.60;;;;;;;-3.20;100.00;100684.34;5067465;28;20186;-57
2022/04/04 04:53:53;;;;;;;8.47;7.70;;;;;;;-3.19;100.00;100677.63;5067488;28;20656;-55
2022/04/04 04:56:18;;;;;;;9.20;8.30;;;;;;;-3.18;100.00;100679.38;5074764;28;20190;-57
2022/04/04 04:58:44;;;;;;;9.83;8.93;;;;;;;-3.17;100.00;100678.56;5072475;28;20674;-57
2022/04/04 05:01:09;;;;;;;8.87;7.90;;;;;;;-3.19;100.00;100672.56;5068169;28;20567;-55
2022/04/04 05:03:35;;;;;;;8.73;7.87;;;;;;;-3.18;100.00;100674.31;5064041;28;20186;-56
2022/04/04 05:06:00;;;;;;;7.97;7.27;;;;;;;-3.16;100.00;100676.13;5080174;28;20626;-56
2022/04/04 05:08:26;;;;;;;7.83;6.87;;;;;;;-3.14;100.00;100673.66;5071785;28;20317;-56
2022/04/04 05:10:52;;;;;;;7.97;7.17;;;;;;;-3.10;100.00;100673.91;5061403;28;20632;-57
2022/04/04 05:13:18;;;;;;;7.87;7.07;;;;;;;-3.09;100.00;100679.84;5070326;28;20237;-55
2022/04/04 05:15:44;;;;;;;7.60;6.87;;;;;;;-3.06;100.00;100678.34;5063767;28;20681;-57
2022/04/04 05:18:09;;;;;;;7.23;6.57;;;;;;;-3.01;100.00;100680.25;5058627;28;20340;-56
2022/04/04 05:20:35;;;;;;;7.20;6.60;;;;;;;-2.96;100.00;100672.09;5065906;28;20192;-56
2022/04/04 05:23:00;;;;;;;7.67;6.93;;;;;;;-2.88;100.00;100669.97;5066750;28;20190;-56
2022/04/04 05:25:26;;;;;;;8.00;7.30;;;;;;;-2.80;100.00;100676.28;5060807;28;20274;-55
2022/04/04 05:27:56;;;;;;;8.43;7.63;;;;;;;-2.71;100.00;100680.09;5060806;28;20190;-57
2022/04/04 05:30:22;;;;;;;7.87;7.10;;;;;;;-2.61;100.00;100687.38;5059494;28;20198;-56
2022/04/04 05:32:47;;;;;;;7.30;6.30;;;;;;;-2.41;100.00;100687.50;5059523;28;20193;-56
2022/04/04 05:35:15;;;;;;;7.93;7.17;;;;;;;-2.20;100.00;100685.16;5060574;28;20187;-57
2022/04/04 05:37:41;;;;;;;9.83;8.20;;;;;;;-2.06;100.00;100681.63;5053985;28;20191;-57
2022/04/04 05:40:07;;;;;;;8.77;7.83;;;;;;;-1.91;100.00;100693.31;5061310;28;20221;-57
2022/04/04 05:42:33;;;;;;;9.07;8.23;;;;;;;-1.68;100.00;100686.81;5059486;28;20186;-57
2022/04/04 05:45:00;;;;;;;7.93;7.13;;;;;;;-1.32;100.00;100685.91;5060371;28;20200;-57
2022/04/04 05:47:26;;;;;;;7.87;7.17;;;;;;;-0.90;100.00;100687.78;5053302;28;20684;-57
2022/04/04 05:49:53;;;;;;;8.20;7.40;;;;;;;-0.36;100.00;100690.94;5060072;28;20283;-57
2022/04/04 05:52:21;;;;;;;7.67;6.97;;;;;;;0.20;98.22;100694.88;5060561;28;20272;-56
2022/04/04 05:54:59;;;;;;;6.50;5.93;;;;;;;0.74;97.10;100691.84;5056412;28;20228;-57
2022/04/04 05:57:29;;;;;;;7.43;6.67;;;;;;;1.33;95.38;100686.31;5062594;28;20662;-56
2022/04/04 05:59:55;;;;;;;6.67;5.97;;;;;;;1.61;94.06;100685.59;5062600;28;20583;-57
2022/04/04 06:02:22;;;;;;;7.27;6.57;;;;;;;1.81;93.12;100687.97;5057685;28;20192;-57
2022/04/04 06:04:48;;;;;;;8.57;7.57;;;;;;;1.92;92.99;100688.28;5060208;28;20659;-55
2022/04/04 06:07:14;;;;;;;9.57;8.47;;;;;;;2.21;91.82;100685.81;5059414;28;20183;-56
2022/04/04 06:09:39;;;;;;;22.40;14.27;;;;;;;2.34;90.81;100681.97;5063468;28;20216;-56
2022/04/04 06:12:05;;;;;;;14.17;10.87;;;;;;;2.39;89.87;100683.84;5079077;28;20186;-56
2022/04/04 06:14:30;;;;;;;15.17;10.10;;;;;;;2.35;90.54;100683.69;5060646;28;20573;-55
2022/04/04 06:16:56;;;;;;;12.47;8.87;;;;;;;2.29;90.37;100686.94;5056806;28;20210;-57
2022/04/04 06:19:21;;;;;;;9.20;8.30;;;;;;;2.25;90.19;100679.97;5061609;28;20219;-57
2022/04/04 06:21:47;;;;;;;9.43;8.43;;;;;;;2.26;90.53;100676.63;5056447;28;20296;-55
2022/04/04 06:24:12;;;;;;;15.33;11.93;;;;;;;2.24;90.68;100680.81;5056223;28;20671;-56
2022/04/04 06:26:39;;;;;;;18.30;13.17;;;;;;;2.18;90.95;100688.28;5063594;28;20342;-56
2022/04/04 06:29:09;;;;;;;16.77;12.47;;;;;;;2.21;90.78;100690.91;5058892;28;20205;-56
2022/04/04 06:31:35;;;;;;;12.87;10.30;;;;;;;2.33;90.46;100691.31;5057347;28;20828;-55
2022/04/04 06:34:00;;;;;;;14.13;10.80;;;;;;;2.81;89.51;100687.63;5060917;28;20217;-57
2022/04/04 06:36:27;;;;;;;11.67;10.47;;;;;;;3.39;87.66;100687.53;5054102;28;20290;-56
2022/04/04 06:38:52;;;;;;;9.53;8.63;;;;;;;3.91;85.92;100688.00;5064162;28;20274;-57
2022/04/04 06:41:19;;;;;;;8.83;7.93;;;;;;;4.49;84.44;100690.19;5060674;28;20190;-57
2022/04/04 06:43:45;;;;;;;7.53;6.87;;;;;;;5.15;81.94;100690.72;5057357;28;20831;-56
2022/04/04 06:46:13;;;;;;;7.23;6.50;;;;;;;5.56;80.00;100694.94;5058565;28;20185;-57
2022/04/04 06:48:39;;;;;;;7.67;6.93;;;;;;;5.86;79.97;100698.00;5064648;28;20210;-58
2022/04/04 06:51:05;;;;;;;7.53;6.73;;;;;;;6.08;79.37;100684.72;5060584;28;20186;-57
2022/04/04 06:53:31;;;;;;;6.77;6.17;;;;;;;6.28;79.03;100683.28;5058265;28;20278;-57
2022/04/04 06:55:57;;;;;;;6.60;6.00;;;;;;;6.36;77.25;100681.66;5061034;28;20903;-56
2022/04/04 06:58:22;;;;;;;8.50;7.67;;;;;;;6.30;77.54;100681.59;5059294;28;20317;-57
2022/04/04 07:00:48;;;;;;;8.53;7.47;;;;;;;6.38;77.40;100677.41;5058962;28;20192;-55
2022/04/04 07:03:13;;;;;;;7.77;7.07;;;;;;;6.47;76.00;100679.25;5056761;28;20182;-56
2022/04/04 07:05:40;;;;;;;9.33;8.13;;;;;;;6.55;75.82;100682.81;5060559;28;20680;-55
2022/04/04 07:08:06;;;;;;;8.37;7.57;;;;;;;6.60;75.33;100677.75;5060272;28;20187;-57
2022/04/04 07:10:32;;;;;;;8.57;7.67;;;;;;;6.66;75.12;100676.09;5058215;28;20191;-58
2022/04/04 07:12:58;;;;;;;14.60;8.60;;;;;;;6.62;75.38;100674.34;5057252;28;20678;-57
2022/04/04 07:15:26;;;;;;;8.50;7.70;;;;;;;6.63;75.52;100668.34;5056836;28;20198;-56
2022/04/04 07:17:51;;;;;;;7.03;6.33;;;;;;;6.63;74.92;100673.50;5059393;28;20231;-57
2022/04/04 07:20:19;;;;;;;6.90;6.20;;;;;;;6.61;75.33;100661.47;5059429;28;20251;-56
2022/04/04 07:22:44;;;;;;;6.37;5.73;;;;;;;6.52;75.30;100663.06;5057532;28;20705;-56
2022/04/04 07:25:11;;;;;;;6.07;5.57;;;;;;;6.44;75.81;100662.09;5063631;28;20209;-56
2022/04/04 07:27:42;;;;;;;5.90;5.40;;;;;;;6.40;75.79;100662.88;5063161;28;20674;-56
2022/04/04 07:30:09;;;;;;;6.33;5.73;;;;;;;6.34;75.70;100660.25;5066969;28;20221;-54
2022/04/04 07:32:38;;;;;;;6.80;5.83;;;;;;;6.26;75.92;100662.69;5061123;28;20186;-55
2022/04/04 07:35:05;;;;;;;6.33;5.73;;;;;;;6.25;76.25;100658.41;5059048;28;20221;-56
2022/04/04 07:37:31;;;;;;;5.97;5.47;;;;;;;6.21;76.60;100660.03;5060176;28;20194;-55
2022/04/04 07:39:58;;;;;;;5.70;5.20;;;;;;;6.21;76.92;100652.34;5058857;28;20215;-57
2022/04/04 07:42:23;;;;;;;6.13;5.53;;;;;;;6.25;76.76;100645.56;5064662;28;20194;-56
2022/04/04 07:44:48;;;;;;;6.43;5.83;;;;;;;6.19;76.95;100641.19;5063652;28;20210;-56
2022/04/04 07:47:14;;;;;;;6.10;5.33;;;;;;;6.13;77.32;100641.09;5065793;28;20309;-55
2022/04/04 07:49:39;;;;;;;6.37;5.77;;;;;;;6.04;77.13;100635.81;5061289;28;20344;-56
2022/04/04 07:52:05;;;;;;;6.57;5.97;;;;;;;5.89;77.27;100633.84;5065609;28;20186;-56
2022/04/04 07:54:30;;;;;;;6.37;5.77;;;;;;;5.80;78.27;100625.16;5064016;28;20205;-56
2022/04/04 07:56:56;;;;;;;6.20;5.67;;;;;;;5.74;78.60;100626.75;5064556;28;20206;-57
2022/04/04 07:59:23;;;;;;;6.60;5.97;;;;;;;5.71;78.71;100629.28;5065158;28;20764;-56
2022/04/04 08:01:48;;;;;;;6.83;6.13;;;;;;;5.64;79.00;100623.16;5062271;28;20217;-56
2022/04/04 08:04:13;;;;;;;6.17;5.27;;;;;;;5.56;79.03;100617.03;5061373;28;20213;-56
2022/04/04 08:06:39;;;;;;;6.37;5.67;;;;;;;5.44;79.07;100617.69;5058496;28;20185;-56
2022/04/04 08:09:04;;;;;;;5.87;5.27;;;;;;;5.32;78.90;100613.22;5068554;28;20563;-57
2022/04/04 08:11:29;;;;;;;6.43;5.93;;;;;;;5.21;79.53;100615.56;5067499;28;20630;-57
2022/04/04 08:13:55;;;;;;;6.33;5.70;;;;;;;5.08;79.76;100606.78;5060921;28;21792;-55
2022/04/04 08:16:22;;;;;;;6.50;5.90;;;;;;;5.01;80.48;100610.06;5056923;28;20190;-57
2022/04/04 08:18:47;;;;;;;6.07;5.47;;;;;;;4.97;81.25;100614.28;5067432;28;20223;-57
2022/04/04 08:21:15;;;;;;;6.33;5.73;;;;;;;5.00;81.90;100606.63;5054569;28;20201;-57
2022/04/04 08:23:41;;;;;;;6.60;6.00;;;;;;;5.08;81.57;100619.59;5056516;28;20692;-56
2022/04/04 08:26:06;;;;;;;6.63;6.03;;;;;;;5.11;80.10;100608.56;5060791;28;20322;-57
2022/04/04 08:28:32;;;;;;;7.30;6.50;;;;;;;5.12;79.90;100613.69;5054454;28;20249;-57
2022/04/04 08:30:57;;;;;;;7.13;6.43;;;;;;;5.17;79.61;100611.22;5059552;28;20262;-56
2022/04/04 08:33:24;;;;;;;6.77;6.13;;;;;;;5.19;79.86;100605.28;5060549;28;20379;-56
2022/04/04 08:35:53;;;;;;;7.03;6.43;;;;;;;5.31;80.04;100601.22;5061378;28;20194;-58
2022/04/04 08:38:19;;;;;;;7.03;6.40;;;;;;;5.34;79.74;100596.13;5063237;28;20211;-56
2022/04/04 08:40:44;;;;;;;6.70;6.10;;;;;;;5.42;80.30;100589.41;5056471;28;20194;-56
2022/04/04 08:43:11;;;;;;;7.00;6.33;;;;;;;5.54;79.17;100583.63;5062200;28;20228;-56
2022/04/04 08:45:42;;;;;;;7.23;6.53;;;;;;;5.54;79.32;100582.75;5057283;28;20186;-57
2022/04/04 08:48:11;;;;;;;7.57;6.77;;;;;;;5.56;79.69;100578.50;5057091;28;20206;-57
2022/04/04 08:50:39;;;;;;;6.87;6.27;;;;;;;5.58;78.49;100575.16;5061707;28;20190;-56
2022/04/04 08:53:05;;;;;;;7.07;6.37;;;;;;;5.61;78.56;100572.59;5061715;28;20611;-57
2022/04/04 08:55:31;;;;;;;7.83;6.73;;;;;;;5.71;78.62;100577.91;5051912;28;20201;-56
2022/04/04 08:57:57;;;;;;;7.07;6.40;;;;;;;5.79;77.27;100569.50;5053889;28;20225;-56
2022/04/04 09:00:24;;;;;;;7.63;6.93;;;;;;;5.86;77.65;100560.16;5057003;28;20201;-56
2022/04/04 09:03:03;;;;;;;6.77;6.13;;;;;;;5.91;77.94;100555.94;5056568;28;20189;-56
2022/04/04 09:05:32;;;;;;;7.20;6.60;;;;;;;6.06;78.24;100560.47;5063352;28;20183;-57
2022/04/04 09:08:05;;;;;;;7.43;6.63;;;;;;;6.22;77.32;100558.13;5058369;28;20191;-56
2022/04/04 09:10:36;;;;;;;6.60;6.10;;;;;;;6.36;76.62;100548.88;5060260;28;20189;-57
2022/04/04 09:13:10;;;;;;;7.03;6.43;;;;;;;6.48;76.34;100549.88;5055939;28;20869;-58
2022/04/04 09:15:54;;;;;;;7.30;6.70;;;;;;;6.56;76.62;100546.53;5062073;28;20208;-56
2022/04/04 09:18:42;;;;;;;6.37;5.77;;;;;;;6.64;76.08;100538.91;5054731;28;20234;-55
2022/04/04 09:21:10;;;;;;;7.40;6.70;;;;;;;6.74;75.55;100529.59;5056058;28;20195;-57
2022/04/04 09:23:56;;;;;;;6.83;6.17;;;;;;;6.81;74.69;100522.81;5056408;28;20210;-56
2022/04/04 09:26:36;;;;;;;6.67;5.93;;;;;;;6.93;74.46;100517.78;5055356;28;20655;-57
2022/04/04 09:29:09;;;;;;;6.90;6.20;;;;;;;7.00;74.91;100517.00;5066970;28;20974;-57
2022/04/04 09:31:35;;;;;;;6.57;5.97;;;;;;;7.01;74.45;100511.00;5057627;28;20217;-57
2022/04/04 09:34:05;;;;;;;6.27;5.67;;;;;;;7.05;74.36;100511.00;5057870;28;20207;-58
2022/04/04 09:36:32;;;;;;;7.20;6.50;;;;;;;7.20;74.03;100508.56;5075072;28;20954;-56
2022/04/04 09:39:03;;;;;;;6.33;5.73;;;;;;;7.33;74.36;100496.66;5056161;28;20714;-57
2022/04/04 09:41:30;;;;;;;7.07;6.00;;;;;;;7.44;74.03;100496.75;5057700;28;20675;-57
2022/04/04 09:43:58;;;;;;;6.10;5.60;;;;;;;7.49;72.34;100492.47;5059406;28;20185;-57
2022/04/04 09:46:33;;;;;;;6.60;5.77;;;;;;;7.56;72.42;100491.69;5062166;28;20765;-57
2022/04/04 09:49:15;;;;;;;6.03;5.43;;;;;;;7.62;70.45;100489.16;5062358;28;20216;-57
2022/04/04 09:51:49;;;;;;;6.43;5.83;;;;;;;7.64;69.31;100481.44;5053222;28;22352;-57
2022/04/04 09:54:18;;;;;;;6.60;6.00;;;;;;;7.62;68.43;100488.28;5054133;28;20212;-55
2022/04/04 09:56:46;;;;;;;6.30;5.70;;;;;;;7.50;69.06;100483.91;5056885;28;20233;-57
2022/04/04 09:59:16;;;;;;;6.87;6.10;;;;;;;7.52;70.00;100481.38;5057047;28;20249;-58
2022/04/04 10:01:43;;;;;;;6.37;5.77;;;;;;;7.52;70.65;100473.63;5058689;28;20221;-57
2022/04/04 10:04:10;;;;;;;6.53;5.93;;;;;;;7.59;69.55;100473.69;5060467;28;20195;-57
2022/04/04 10:06:37;;;;;;;7.03;6.37;;;;;;;7.63;69.58;100465.13;5061235;28;20190;-56
2022/04/04 10:09:03;;;;;;;6.77;5.93;;;;;;;7.62;69.97;100454.81;5060863;28;20707;-56
2022/04/04 10:11:36;;;;;;;6.57;5.97;;;;;;;7.64;69.98;100445.38;5062579;28;20223;-56
2022/04/04 10:14:02;;;;;;;6.97;6.37;;;;;;;7.69;70.32;100451.44;5068809;28;20219;-57
2022/04/04 10:16:30;;;;;;;7.00;6.23;;;;;;;7.70;69.45;100445.41;5066161;28;20549;-57
2022/04/04 10:18:57;;;;;;;6.80;6.20;;;;;;;7.71;70.43;100436.84;5065506;28;20200;-56
2022/04/04 10:21:25;;;;;;;6.33;5.83;;;;;;;7.74;71.25;100426.53;5063596;28;20573;-57
2022/04/04 10:23:53;;;;;;;7.43;6.73;;;;;;;7.86;71.56;100428.31;5056128;28;20638;-57
2022/04/04 10:26:21;;;;;;;6.67;6.10;;;;;;;7.97;70.26;100428.38;5059226;28;20191;-58
2022/04/04 10:28:47;;;;;;;7.27;6.50;;;;;;;7.96;69.09;100416.31;5064323;28;20419;-57
2022/04/04 10:31:19;;;;;;;6.63;6.10;;;;;;;7.99;69.44;100412.88;5065467;28;20206;-56
2022/04/04 10:33:46;;;;;;;7.23;6.57;;;;;;;8.15;68.43;100396.63;5059228;28;20225;-56
2022/04/04 10:36:20;;;;;;;6.33;5.83;;;;;;;8.27;67.86;100390.66;5062804;28;20211;-57
2022/04/04 10:38:45;;;;;;;6.93;6.33;;;;;;;8.34;68.12;100394.09;5060393;28;20218;-57
2022/04/04 10:41:14;;;;;;;8.40;6.70;;;;;;;8.51;68.55;100386.41;5060554;28;20196;-57
2022/04/04 10:43:45;;;;;;;7.00;6.27;;;;;;;8.63;66.84;100376.09;5063581;28;20688;-58
2022/04/04 10:46:12;;;;;;;6.70;6.10;;;;;;;8.76;66.83;100379.53;5063196;28;20192;-57
2022/04/04 10:48:39;;;;;;;6.50;5.80;;;;;;;8.76;66.86;100376.97;5058708;28;20211;-57
2022/04/04 10:51:19;;;;;;;6.10;5.60;;;;;;;8.76;66.98;100371.81;5065782;28;20641;-57
2022/04/04 10:53:53;;;;;;;5.70;5.23;;;;;;;8.72;65.91;100370.06;5062803;28;20238;-56
2022/04/04 10:56:40;;;;;;;5.90;5.40;;;;;;;8.83;64.27;100355.47;5063875;28;20219;-58
2022/04/04 10:59:15;;;;;;;6.10;5.50;;;;;;;8.83;63.42;100355.47;5057626;28;20224;-57
2022/04/04 11:01:42;;;;;;;5.57;5.07;;;;;;;8.75;64.15;100353.75;5063046;28;20257;-57
2022/04/04 11:04:23;;;;;;;6.40;5.80;;;;;;;8.80;64.87;100352.00;5069359;28;20227;-57
2022/04/04 11:09:46;;;;;;;6.73;6.13;;;;;;;9.21;64.28;100340.78;5060978;28;20220;-57
2022/04/04 11:12:13;;;;;;;7.10;6.50;;;;;;;9.41;64.02;100329.50;5061254;28;20216;-57
2022/04/04 11:14:42;;;;;;;6.83;6.00;;;;;;;9.45;64.49;100321.75;5064930;28;20213;-57
2022/04/04 11:20:33;;;;;;;10.73;8.97;;;;;;;10.14;64.07;100318.81;5054177;28;20220;-57
2022/04/04 11:23:08;;;;;;;11.03;9.87;;;;;;;10.33;63.09;100310.06;5070029;28;20232;-56
2022/04/04 11:25:35;;;;;;;7.37;6.77;;;;;;;10.23;62.93;100308.41;5072583;28;20189;-56
2022/04/04 11:28:04;;;;;;;7.07;6.47;;;;;;;10.07;63.37;100295.56;5072036;28;20245;-57
2022/04/04 11:30:30;;;;;;;7.83;6.43;;;;;;;9.96;63.35;100289.63;5064554;28;20205;-57
2022/04/04 11:32:59;;;;;;;7.07;6.37;;;;;;;9.99;63.51;100281.84;5056511;28;20557;-57
2022/04/04 11:35:31;;;;;;;7.40;6.70;;;;;;;10.07;63.56;100285.22;5057612;28;20217;-57
2022/04/04 11:38:11;;;;;;;7.10;6.40;;;;;;;10.13;62.49;100275.72;5061426;28;20240;-57